createdAt,value
2019-04-16T00:00:02.060Z,98882.42
2019-04-16T00:02:54.879Z,98886.98
2019-04-16T00:05:30.101Z,98877.80
2019-04-16T00:08:19.477Z,98882.48
2019-04-16T00:10:52.184Z,98883.36
2019-04-16T00:13:43.396Z,98877.54
2019-04-16T00:16:15.153Z,98878.61
2019-04-16T00:18:57.323Z,98874.27
2019-04-16T00:21:46.183Z,98877.64
2019-04-16T00:24:23.663Z,98882.23
2019-04-16T00:26:59.131Z,98873.86
2019-04-16T00:29:33.053Z,98876.27
2019-04-16T00:32:26.203Z,98879.82
2019-04-16T00:34:58.116Z,98867.80
2019-04-16T00:37:29.887Z,98878.58
2019-04-16T00:40:02.090Z,98878.11
2019-04-16T00:42:35.271Z,98870.27
2019-04-16T00:45:07.357Z,98871.78
2019-04-16T00:47:39.156Z,98875.45
2019-04-16T00:50:11.046Z,98877.00
2019-04-16T00:52:42.942Z,98871.17
2019-04-16T00:55:14.801Z,98875.89
2019-04-16T00:57:48.619Z,98877.25
2019-04-16T01:00:22.299Z,98876.81
2019-04-16T01:02:54.193Z,98876.48
2019-04-16T01:05:25.724Z,98876.20
2019-04-16T01:07:57.262Z,98878.57
2019-04-16T01:10:29.237Z,98869.90
2019-04-16T01:13:01.062Z,98871.10
2019-04-16T01:15:33.112Z,98874.47
2019-04-16T01:18:07.818Z,98877.31
2019-04-16T01:20:42.821Z,98874.50
2019-04-16T01:23:17.592Z,98872.83
2019-04-16T01:25:46.359Z,98865.16
2019-04-16T01:28:20.765Z,98871.70
2019-04-16T01:31:17.446Z,98872.91
2019-04-16T01:34:03.266Z,98871.92
2019-04-16T01:36:54.263Z,98873.48
2019-04-16T01:39:28.027Z,98873.00
2019-04-16T01:41:59.752Z,98870.24
2019-04-16T01:44:31.564Z,98881.30
2019-04-16T01:47:04.161Z,98875.66
2019-04-16T01:49:39.386Z,98881.52
2019-04-16T01:52:10.576Z,98879.36
2019-04-16T01:54:42.761Z,98882.03
2019-04-16T01:57:14.403Z,98887.28
2019-04-16T01:59:46.247Z,98881.74
2019-04-16T02:02:18.884Z,98886.11
2019-04-16T02:04:52.118Z,98884.12
2019-04-16T02:07:27.722Z,98881.47
2019-04-16T02:09:57.326Z,98885.82
2019-04-16T02:12:29.699Z,98881.83
2019-04-16T02:15:01.568Z,98883.37
2019-04-16T02:17:34.383Z,98879.20
2019-04-16T02:20:07.581Z,98878.02
2019-04-16T02:22:42.228Z,98875.84
2019-04-16T02:25:19.028Z,98880.55
2019-04-16T02:27:48.716Z,98879.21
2019-04-16T02:30:20.366Z,98881.93
2019-04-16T02:32:51.988Z,98880.06
2019-04-16T02:35:24.917Z,98878.58
2019-04-16T02:37:56.681Z,98870.20
2019-04-16T02:40:28.572Z,98875.77
2019-04-16T02:43:04.781Z,98868.93
2019-04-16T02:45:33.825Z,98874.28
2019-04-16T02:48:05.836Z,98874.47
2019-04-16T02:51:05.472Z,98869.78
2019-04-16T02:53:58.895Z,98864.48
2019-04-16T02:56:51.614Z,98871.80
2019-04-16T02:59:25.587Z,98871.52
2019-04-16T03:02:24.345Z,98872.31
2019-04-16T03:05:14.986Z,98870.84
2019-04-16T03:07:47.113Z,98865.19
2019-04-16T03:10:19.670Z,98868.70
2019-04-16T03:12:52.937Z,98867.91
2019-04-16T03:15:42.842Z,98867.12
2019-04-16T03:18:16.225Z,98862.62
2019-04-16T03:20:49.500Z,98867.81
2019-04-16T03:23:21.141Z,98871.67
2019-04-16T03:25:53.866Z,98867.66
2019-04-16T03:28:27.183Z,98864.00
2019-04-16T03:30:59.090Z,98859.31
2019-04-16T03:33:30.697Z,98864.20
2019-04-16T03:36:03.903Z,98863.66
2019-04-16T03:38:37.356Z,98857.68
2019-04-16T03:41:09.098Z,98860.34
2019-04-16T03:43:41.014Z,98863.02
2019-04-16T03:46:14.514Z,98859.20
2019-04-16T03:48:46.190Z,98855.20
2019-04-16T03:51:18.444Z,98856.39
2019-04-16T03:53:50.492Z,98857.57
2019-04-16T03:56:22.093Z,98863.25
2019-04-16T03:58:55.097Z,98859.75
2019-04-16T04:01:27.345Z,98863.75
2019-04-16T04:03:59.256Z,98875.62
2019-04-16T04:06:31.218Z,98880.12
2019-04-16T04:09:03.265Z,98883.81
2019-04-16T04:11:40.940Z,98888.66
2019-04-16T04:14:10.907Z,98881.67
2019-04-16T04:16:43.007Z,98882.51
2019-04-16T04:19:15.972Z,98881.48
2019-04-16T04:21:50.679Z,98893.66
2019-04-16T04:24:22.113Z,98893.66
2019-04-16T04:26:53.995Z,98902.97
2019-04-16T04:29:28.964Z,98899.42
2019-04-16T04:32:03.371Z,98901.44
2019-04-16T04:34:35.071Z,98906.94
2019-04-16T04:37:07.209Z,98895.41
2019-04-16T04:39:43.682Z,98896.05
2019-04-16T04:42:14.275Z,98899.53
2019-04-16T04:44:47.141Z,98909.87
2019-04-16T04:47:20.143Z,98903.34
2019-04-16T04:49:51.858Z,98909.13
2019-04-16T04:52:23.642Z,98921.30
2019-04-16T04:54:55.476Z,98916.06
2019-04-16T04:57:28.391Z,98922.39
2019-04-16T05:00:05.649Z,98925.55
2019-04-16T05:02:37.677Z,98920.50
2019-04-16T05:05:43.765Z,98925.09
2019-04-16T05:08:15.488Z,98926.57
2019-04-16T05:10:58.319Z,98920.66
2019-04-16T05:13:23.927Z,98934.16
2019-04-16T05:15:54.250Z,98926.13
2019-04-16T05:18:27.194Z,98929.23
2019-04-16T05:20:59.115Z,98938.88
2019-04-16T05:23:30.801Z,98941.62
2019-04-16T05:26:04.815Z,98936.89
2019-04-16T05:28:36.452Z,98936.81
2019-04-16T05:31:08.321Z,98936.71
2019-04-16T05:33:40.241Z,98933.25
2019-04-16T05:36:14.175Z,98929.48
2019-04-16T05:38:45.551Z,98937.63
2019-04-16T05:41:21.282Z,98939.52
2019-04-16T05:43:50.961Z,98933.73
2019-04-16T05:46:22.617Z,98933.73
2019-04-16T05:48:54.671Z,98932.80
2019-04-16T05:51:28.521Z,98938.27
2019-04-16T05:54:08.430Z,98943.55
2019-04-16T05:56:44.454Z,98948.05
2019-04-16T05:59:17.151Z,98945.77
2019-04-16T06:01:57.382Z,98951.42
2019-04-16T06:04:28.697Z,98949.73
2019-04-16T06:07:03.701Z,98951.60
2019-04-16T06:09:34.256Z,98955.25
2019-04-16T06:12:08.929Z,98954.92
2019-04-16T06:14:49.676Z,98952.25
2019-04-16T06:17:39.695Z,98951.04
2019-04-16T06:20:36.662Z,98940.26
2019-04-16T06:23:26.078Z,98944.16
2019-04-16T06:26:17.629Z,98945.64
2019-04-16T06:29:08.323Z,98952.39
2019-04-16T06:31:56.475Z,98959.75
2019-04-16T06:34:34.346Z,98951.36
2019-04-16T06:37:21.598Z,98961.25
2019-04-16T06:40:22.269Z,98961.31
2019-04-16T06:43:03.803Z,98956.80
2019-04-16T06:45:47.776Z,98955.89
2019-04-16T06:48:29.055Z,98951.88
2019-04-16T06:51:20.218Z,98952.27
2019-04-16T06:54:11.259Z,98951.38
2019-04-16T06:57:17.435Z,98957.25
2019-04-16T07:00:13.911Z,98954.89
2019-04-16T07:03:02.132Z,98956.00
2019-04-16T07:05:49.282Z,98960.33
2019-04-16T07:08:38.185Z,98961.59
2019-04-16T07:11:08.196Z,98961.31
2019-04-16T07:13:42.288Z,98966.65
2019-04-16T07:16:14.843Z,98973.08
2019-04-16T07:18:46.516Z,98975.94
2019-04-16T07:21:18.371Z,98971.81
2019-04-16T07:23:56.850Z,98967.38
2019-04-16T07:26:24.826Z,98970.48
2019-04-16T07:29:02.744Z,98981.80
2019-04-16T07:31:45.244Z,98982.95
2019-04-16T07:34:40.066Z,98970.41
2019-04-16T07:37:33.828Z,98967.19
2019-04-16T07:40:24.127Z,98974.22
2019-04-16T07:43:23.552Z,98969.34
2019-04-16T07:46:17.288Z,98974.70
2019-04-16T07:49:01.352Z,98976.24
2019-04-16T07:51:50.765Z,98970.92
2019-04-16T07:54:41.650Z,98974.83
2019-04-16T07:57:13.397Z,98970.84
2019-04-16T07:59:47.589Z,98974.32
2019-04-16T08:02:21.518Z,98968.81
2019-04-16T08:04:52.680Z,98975.17
2019-04-16T08:07:24.262Z,98972.68
2019-04-16T08:10:01.074Z,98976.18
2019-04-16T08:12:30.998Z,98973.47
2019-04-16T08:15:13.377Z,98975.98
2019-04-16T08:17:37.645Z,98980.39
2019-04-16T08:20:09.645Z,98972.72
2019-04-16T08:22:41.289Z,98974.06
2019-04-16T08:25:12.899Z,98981.47
2019-04-16T08:27:47.145Z,98973.42
2019-04-16T08:30:19.174Z,98968.97
2019-04-16T08:32:51.967Z,98971.02
2019-04-16T08:35:24.053Z,98968.86
2019-04-16T08:37:57.946Z,98965.19
2019-04-16T08:40:29.261Z,98964.22
2019-04-16T08:43:00.953Z,98965.66
2019-04-16T08:45:32.630Z,98964.77
2019-04-16T08:48:05.038Z,98961.23
2019-04-16T08:50:36.794Z,98961.31
2019-04-16T08:53:13.288Z,98957.03
2019-04-16T08:55:42.494Z,98957.33
2019-04-16T08:58:15.128Z,98958.89
2019-04-16T09:00:48.852Z,98968.30
2019-04-16T09:03:21.561Z,98962.13
2019-04-16T09:05:53.175Z,98963.86
2019-04-16T09:08:33.456Z,98955.28
2019-04-16T09:11:06.110Z,98952.78
2019-04-16T09:13:44.449Z,98957.95
2019-04-16T09:16:16.648Z,98947.98
2019-04-16T09:19:12.997Z,98946.95
2019-04-16T09:21:44.789Z,98940.63
2019-04-16T09:24:41.422Z,98939.05
2019-04-16T09:27:31.073Z,98940.18
2019-04-16T09:30:22.197Z,98939.69
2019-04-16T09:33:15.585Z,98946.55
2019-04-16T09:36:15.242Z,98943.28
2019-04-16T09:38:50.593Z,98945.66
2019-04-16T09:41:35.162Z,98943.88
2019-04-16T09:44:06.917Z,98939.14
2019-04-16T09:46:53.842Z,98941.39
2019-04-16T09:49:11.995Z,98941.48
2019-04-16T09:51:44.065Z,98940.16
2019-04-16T09:54:15.820Z,98934.55
2019-04-16T09:56:47.592Z,98939.42
2019-04-16T09:59:39.347Z,98943.33
2019-04-16T10:02:32.299Z,98942.80
2019-04-16T10:05:04.635Z,98932.63
2019-04-16T10:07:39.871Z,98928.38
2019-04-16T10:10:10.395Z,98927.20
2019-04-16T10:12:43.035Z,98921.55
2019-04-16T10:15:15.859Z,98926.80
2019-04-16T10:17:50.266Z,98925.51
2019-04-16T10:20:21.912Z,98922.91
2019-04-16T10:22:54.632Z,98919.36
2019-04-16T10:25:26.444Z,98920.14
2019-04-16T10:28:01.946Z,98912.16
2019-04-16T10:30:43.626Z,98914.70
2019-04-16T10:33:15.352Z,98910.38
2019-04-16T10:35:47.089Z,98916.28
2019-04-16T10:38:44.135Z,98918.37
2019-04-16T10:41:30.427Z,98919.47
2019-04-16T10:44:24.314Z,98909.84
2019-04-16T10:47:35.684Z,98902.75
2019-04-16T10:50:36.330Z,98898.30
2019-04-16T10:53:30.270Z,98889.42
2019-04-16T10:56:22.134Z,98889.73
2019-04-16T10:59:19.063Z,98885.33
2019-04-16T11:02:16.607Z,98883.72
2019-04-16T11:05:15.228Z,98888.16
2019-04-16T11:07:47.570Z,98879.95
2019-04-16T11:10:19.225Z,98879.91
2019-04-16T11:12:52.063Z,98874.77
2019-04-16T11:15:25.057Z,98875.61
2019-04-16T11:17:57.110Z,98877.89
2019-04-16T11:20:28.911Z,98869.96
2019-04-16T11:23:00.839Z,98869.06
2019-04-16T11:25:32.561Z,98865.28
2019-04-16T11:28:06.783Z,98861.36
2019-04-16T11:30:41.770Z,98852.21
2019-04-16T11:33:13.515Z,98853.45
2019-04-16T11:35:45.365Z,98853.58
2019-04-16T11:38:17.884Z,98848.92
2019-04-16T11:40:49.501Z,98853.23
2019-04-16T11:43:23.014Z,98861.52
2019-04-16T11:45:55.069Z,98860.84
2019-04-16T11:48:26.864Z,98860.08
2019-04-16T11:50:58.612Z,98854.78
2019-04-16T11:53:30.334Z,98852.19
2019-04-16T11:56:04.632Z,98852.19
2019-04-16T11:58:47.383Z,98853.69
2019-04-16T12:01:25.874Z,98856.36
2019-04-16T12:04:31.411Z,98848.60
2019-04-16T12:07:12.327Z,98847.38
2019-04-16T12:10:06.075Z,98837.41
2019-04-16T12:12:57.225Z,98833.11
2019-04-16T12:15:50.190Z,98838.77
2019-04-16T12:18:55.942Z,98822.75
2019-04-16T12:21:49.524Z,98825.60
2019-04-16T12:24:49.056Z,98815.53
2019-04-16T12:27:38.345Z,98816.47
2019-04-16T12:30:42.090Z,98818.27
2019-04-16T12:33:22.894Z,98809.13
2019-04-16T12:36:16.777Z,98805.23
2019-04-16T12:39:06.390Z,98809.84
2019-04-16T12:42:16.917Z,98805.67
2019-04-16T12:44:54.810Z,98808.73
2019-04-16T12:47:39.248Z,98805.06
2019-04-16T12:50:34.233Z,98791.98
2019-04-16T12:53:17.483Z,98789.37
2019-04-16T12:56:23.547Z,98788.98
2019-04-16T12:59:12.971Z,98798.50
2019-04-16T13:02:16.383Z,98778.40
2019-04-16T13:05:02.311Z,98785.45
2019-04-16T13:07:47.131Z,98783.83
2019-04-16T13:10:36.409Z,98780.48
2019-04-16T13:13:29.893Z,98780.76
2019-04-16T13:16:06.828Z,98764.21
2019-04-16T13:18:56.338Z,98780.36
2019-04-16T13:21:34.347Z,98777.92
2019-04-16T13:24:11.745Z,98755.80
2019-04-16T13:26:55.500Z,98775.33
2019-04-16T13:29:29.732Z,98764.21
2019-04-16T13:32:03.897Z,98766.37
2019-04-16T13:34:35.784Z,98763.49
2019-04-16T13:37:07.662Z,98764.25
2019-04-16T13:40:00.226Z,98762.52
2019-04-16T13:42:32.283Z,98754.09
2019-04-16T13:45:32.024Z,98753.45
2019-04-16T13:48:15.600Z,98755.47
2019-04-16T13:50:43.022Z,98757.91
2019-04-16T13:53:30.856Z,98751.27
2019-04-16T13:56:21.471Z,98755.34
2019-04-16T13:59:04.548Z,98748.83
2019-04-16T14:01:45.061Z,98745.98
2019-04-16T14:04:13.752Z,98744.55
2019-04-16T14:06:46.345Z,98744.55
2019-04-16T14:09:18.239Z,98739.55
2019-04-16T14:11:51.323Z,98734.44
2019-04-16T14:14:24.840Z,98742.41
2019-04-16T14:16:56.982Z,98739.02
2019-04-16T14:19:28.575Z,98730.35
2019-04-16T14:22:01.755Z,98736.79
2019-04-16T14:24:33.589Z,98741.77
2019-04-16T14:27:06.044Z,98734.53
2019-04-16T14:29:38.897Z,98730.28
2019-04-16T14:32:12.225Z,98733.28
2019-04-16T14:34:55.337Z,98731.18
2019-04-16T14:37:27.076Z,98731.70
2019-04-16T14:40:26.943Z,98730.31
2019-04-16T14:42:59.325Z,98725.32
2019-04-16T14:45:59.329Z,98733.55
2019-04-16T14:48:30.278Z,98738.41
2019-04-16T14:51:02.969Z,98739.03
2019-04-16T14:53:56.870Z,98730.02
2019-04-16T14:56:40.695Z,98735.91
2019-04-16T14:59:30.248Z,98725.73
2019-04-16T15:02:16.539Z,98705.11
2019-04-16T15:05:08.947Z,98728.36
2019-04-16T15:08:04.667Z,98729.77
2019-04-16T15:10:54.694Z,98727.53
2019-04-16T15:13:42.322Z,98724.39
2019-04-16T15:16:40.717Z,98723.77
2019-04-16T15:19:20.714Z,98730.52
2019-04-16T15:22:14.081Z,98726.72
2019-04-16T15:24:50.951Z,98718.89
2019-04-16T15:27:37.063Z,98720.87
2019-04-16T15:30:31.619Z,98723.62
2019-04-16T15:33:40.716Z,98724.32
2019-04-16T15:36:19.749Z,98715.33
2019-04-16T15:39:10.473Z,98714.38
2019-04-16T15:42:16.346Z,98707.11
2019-04-16T15:44:52.558Z,98707.71
2019-04-16T15:47:42.948Z,98698.02
2019-04-16T15:50:18.626Z,98692.56
2019-04-16T15:52:59.006Z,98705.78
2019-04-16T15:55:48.024Z,98691.23
2019-04-16T15:58:26.787Z,98706.97
2019-04-16T16:01:36.571Z,98699.78
2019-04-16T16:04:11.207Z,98703.02
2019-04-16T16:06:56.473Z,98704.45
2019-04-16T16:09:41.842Z,98686.66
2019-04-16T16:12:22.071Z,98703.80
2019-04-16T16:14:51.488Z,98701.70
2019-04-16T16:17:23.507Z,98706.81
2019-04-16T16:19:55.491Z,98708.03
2019-04-16T16:22:27.260Z,98703.27
2019-04-16T16:24:59.302Z,98705.68
2019-04-16T16:27:31.098Z,98711.59
2019-04-16T16:30:03.619Z,98701.36
2019-04-16T16:32:37.175Z,98704.08
2019-04-16T16:35:09.420Z,98703.20
2019-04-16T16:37:42.258Z,98697.72
2019-04-16T16:40:15.205Z,98705.92
2019-04-16T16:42:48.982Z,98702.84
2019-04-16T16:45:22.805Z,98713.01
2019-04-16T16:47:54.426Z,98717.36
2019-04-16T16:50:26.238Z,98718.17
2019-04-16T16:53:15.558Z,98721.02
2019-04-16T16:55:50.734Z,98719.73
2019-04-16T16:58:42.405Z,98715.91
2019-04-16T17:01:42.336Z,98719.54
2019-04-16T17:04:23.125Z,98737.05
2019-04-16T17:06:56.372Z,98725.54
2019-04-16T17:09:37.006Z,98722.16
2019-04-16T17:12:08.685Z,98730.25
2019-04-16T17:14:40.669Z,98734.90
2019-04-16T17:17:15.164Z,98728.36
2019-04-16T17:19:50.715Z,98728.36
2019-04-16T17:22:21.334Z,98733.17
2019-04-16T17:24:53.055Z,98739.30
2019-04-16T17:27:24.832Z,98737.36
2019-04-16T17:29:56.868Z,98744.45
2019-04-16T17:32:29.170Z,98743.85
2019-04-16T17:35:00.752Z,98748.95
2019-04-16T17:37:33.831Z,98747.89
2019-04-16T17:40:19.047Z,98742.13
2019-04-16T17:42:53.299Z,98756.42
2019-04-16T17:45:47.045Z,98747.95
2019-04-16T17:48:36.684Z,98757.48
2019-04-16T17:51:27.310Z,98746.28
2019-04-16T17:54:06.693Z,98749.21
2019-04-16T17:57:15.372Z,98755.38
2019-04-16T18:00:00.478Z,98753.71
2019-04-16T18:02:48.566Z,98765.52
2019-04-16T18:05:48.669Z,98767.80
2019-04-16T18:08:41.742Z,98789.72
2019-04-16T18:11:20.996Z,98798.66
2019-04-16T18:14:12.575Z,98804.64
2019-04-16T18:16:54.128Z,98804.71
2019-04-16T18:20:00.596Z,98826.12
2019-04-16T18:22:41.948Z,98821.73
2019-04-16T18:25:32.776Z,98842.73
2019-04-16T18:28:09.483Z,98845.28
2019-04-16T18:30:55.190Z,98852.61
2019-04-16T18:33:49.064Z,98852.98
2019-04-16T18:36:31.293Z,98864.42
2019-04-16T18:39:21.891Z,98870.98
2019-04-16T18:42:19.985Z,98869.43
2019-04-16T18:45:11.671Z,98873.31
2019-04-16T18:48:01.509Z,98869.82
2019-04-16T18:50:27.948Z,98870.32
2019-04-16T18:52:57.485Z,98875.54
2019-04-16T18:55:29.216Z,98878.59
2019-04-16T18:58:01.739Z,98870.38
2019-04-16T19:00:45.529Z,98890.52
2019-04-16T19:03:17.357Z,98884.58
2019-04-16T19:05:49.691Z,98884.95
2019-04-16T19:08:21.591Z,98887.13
2019-04-16T19:10:53.431Z,98886.98
2019-04-16T19:13:25.103Z,98890.12
2019-04-16T19:15:57.038Z,98898.70
2019-04-16T19:18:28.554Z,98895.19
2019-04-16T19:21:00.741Z,98897.39
2019-04-16T19:23:32.455Z,98897.95
2019-04-16T19:26:04.815Z,98895.19
2019-04-16T19:28:39.619Z,98900.06
2019-04-16T19:31:12.192Z,98902.52
2019-04-16T19:33:44.373Z,98901.91
2019-04-16T19:36:16.326Z,98903.13
2019-04-16T19:38:48.759Z,98911.22
2019-04-16T19:41:24.396Z,98905.82
2019-04-16T19:43:54.488Z,98913.63
2019-04-16T19:46:26.908Z,98911.49
2019-04-16T19:49:01.725Z,98910.85
2019-04-16T19:51:33.711Z,98912.84
2019-04-16T19:54:06.730Z,98915.05
2019-04-16T19:56:38.672Z,98912.75
2019-04-16T19:59:10.501Z,98915.57
2019-04-16T20:01:42.458Z,98918.06
2019-04-16T20:04:14.877Z,98917.83
2019-04-16T20:06:46.834Z,98914.52
2019-04-16T20:09:18.536Z,98915.05
2019-04-16T20:11:54.690Z,98919.91
2019-04-16T20:14:23.551Z,98916.16
2019-04-16T20:16:55.317Z,98917.92
2019-04-16T20:19:27.055Z,98919.59
2019-04-16T20:21:59.648Z,98918.87
2019-04-16T20:24:31.693Z,98919.56
2019-04-16T20:27:06.718Z,98922.04
2019-04-16T20:29:38.366Z,98921.20
2019-04-16T20:32:10.209Z,98925.84
2019-04-16T20:34:46.250Z,98928.18
2019-04-16T20:37:17.951Z,98924.00
2019-04-16T20:39:49.874Z,98923.17
2019-04-16T20:42:21.714Z,98930.25
2019-04-16T20:44:54.593Z,98926.87
2019-04-16T20:47:26.970Z,98939.42
2019-04-16T20:49:59.050Z,98928.44
2019-04-16T20:52:30.933Z,98931.98
2019-04-16T20:55:04.836Z,98927.92
2019-04-16T20:57:39.081Z,98926.25
2019-04-16T21:00:12.893Z,98938.28
2019-04-16T21:02:44.978Z,98935.31
2019-04-16T21:05:22.382Z,98934.19
2019-04-16T21:07:51.388Z,98932.41
2019-04-16T21:10:23.255Z,98926.19
2019-04-16T21:12:56.943Z,98930.44
2019-04-16T21:15:29.084Z,98937.60
2019-04-16T21:18:00.914Z,98942.77
2019-04-16T21:20:33.770Z,98939.86
2019-04-16T21:23:05.963Z,98941.53
2019-04-16T21:25:37.935Z,98939.49
2019-04-16T21:28:26.713Z,98940.84
2019-04-16T21:31:04.153Z,98940.19
2019-04-16T21:33:55.003Z,98939.34
2019-04-16T21:36:49.000Z,98944.73
2019-04-16T21:39:26.285Z,98938.73
2019-04-16T21:42:01.784Z,98938.47
2019-04-16T21:44:31.665Z,98940.04
2019-04-16T21:47:03.523Z,98940.98
2019-04-16T21:49:38.980Z,98938.94
2019-04-16T21:52:09.245Z,98936.66
2019-04-16T21:54:41.375Z,98939.05
2019-04-16T21:57:14.383Z,98934.77
2019-04-16T21:59:46.382Z,98938.00
2019-04-16T22:02:22.577Z,98935.81
2019-04-16T22:04:55.251Z,98937.05
2019-04-16T22:07:27.555Z,98931.45
2019-04-16T22:09:59.756Z,98934.36
2019-04-16T22:12:31.534Z,98930.26
2019-04-16T22:15:03.294Z,98933.35
2019-04-16T22:17:36.799Z,98940.47
2019-04-16T22:20:10.150Z,98930.40
2019-04-16T22:22:43.689Z,98931.56
2019-04-16T22:25:16.353Z,98934.66
2019-04-16T22:27:47.971Z,98934.69
2019-04-16T22:30:20.215Z,98926.00
2019-04-16T22:32:52.490Z,98933.78
2019-04-16T22:35:24.478Z,98929.23
2019-04-16T22:37:56.426Z,98929.13
2019-04-16T22:40:55.005Z,98928.20
2019-04-16T22:43:45.368Z,98918.86
2019-04-16T22:46:24.051Z,98919.70
2019-04-16T22:48:56.806Z,98922.83
2019-04-16T22:51:28.586Z,98920.53
2019-04-16T22:54:00.449Z,98921.70
2019-04-16T22:56:45.950Z,98929.77
2019-04-16T22:59:19.026Z,98921.45
2019-04-16T23:01:53.221Z,98926.86
2019-04-16T23:04:25.974Z,98924.17
2019-04-16T23:06:57.835Z,98919.83
2019-04-16T23:09:31.109Z,98919.20
2019-04-16T23:12:03.528Z,98918.59
2019-04-16T23:14:35.672Z,98919.02
2019-04-16T23:17:13.431Z,98915.82
2019-04-16T23:19:42.487Z,98907.12
2019-04-16T23:22:15.385Z,98909.38
2019-04-16T23:24:48.145Z,98908.25
2019-04-16T23:27:20.571Z,98908.17
2019-04-16T23:29:52.287Z,98905.35
2019-04-16T23:32:27.666Z,98908.15
2019-04-16T23:34:57.390Z,98906.91
2019-04-16T23:37:31.656Z,98899.77
2019-04-16T23:40:07.195Z,98904.11
2019-04-16T23:42:40.305Z,98897.79
2019-04-16T23:45:31.465Z,98905.97
2019-04-16T23:48:31.323Z,98906.59
2019-04-16T23:51:16.937Z,98909.38
2019-04-16T23:53:52.320Z,98902.66
2019-04-16T23:56:28.706Z,98905.34
2019-04-16T23:59:04.630Z,98907.74
